Terminal Aerodrome Forecast
Issued by NWS

Home | Current Version | Previous Version | Graphics & Text | Print | Product List | Glossary On
Versions: 1 2 3 4 5 6 7 8 9 10 11 12 13 14 15 16 17 18 19 20 21 22 23 24 25 26
872
FTUS43 KLOT 290522
TAFDPA
TAF
KDPA 290522Z 2906/3006 03011G16KT P6SM BKN025 OVC040
     FM291700 05016G26KT P6SM -SHRA OVC025
     FM292000 04020G28KT 3SM RA BR OVC008
     FM300000 04020G30KT 3SM -DZRA BR OVC006=

USA.gov is the U.S. government's official web portal to all federal, state and local government web resources and services.